Share

La Crosse, KS

Rural Ellis Co. (KKSHAYS15) Elev 2119 ft | 38.81 °N, 99.37 °W | Change Station

Current weather conditions updated 12 minutes ago

Clear
Clear
36.7 °F
Feels Like 33 °F
N
4.2
Wind Variable Wind from South
Sunrise 6:56 AM
Sunset 8:16 PM
Moon Waning Gibbous

Today is forecast to be Much Warmer than yesterday.

Pressure 30.25 in
Visibility 9.0 miles
Clouds Clear
Windchill 33 °F
Dew Point 34 °F
Humidity 90%
Rainfall 0.00 in
Snow Depth Not available.
UV 0 out of 16
Pollen 7.50 out of 12
Air Quality Not available.
Flu Activity Sporadic
METAR KRSL 180553Z AUTO 18009KT 9SM CLR 03/M01 A3022 RMK AO2 SLP244 T00331011 10133 20033 401440011 50001 TSNO

More Conditions Fewer Conditions

Pressure 30.25 in
Visibility 9.0 miles
Clouds Clear
Windchill 33 °F
Dew Point 34 °F
Humidity 90%
Rainfall 0.00 in
Snow Depth Not available.
UV 0 out of 16
Pollen 7.50 out of 12
Air Quality Not available.
Flu Activity Sporadic
METAR KRSL 180553Z AUTO 18009KT 9SM CLR 03/M01 A3022 RMK AO2 SLP244 T00331011 10133 20033 401440011 50001 TSNO

More Conditions Fewer Conditions

10-Day Forecast

Almanac

Astronomy

Apr. 18, 2014 Rise Set
Actual Time 6:56 AM CDT 8:16 PM CDT
Civil Twilight 6:29 AM CDT 8:44 PM CDT
Nautical Twilight 5:56 AM CDT 9:17 PM CDT
Astronomical Twilight 5:21 AM CDT 9:52 PM CDT
Moon No Moon Rise 9:22 AM CDT
Length of Visible Light 14h 15m
Length of Day
13h 19m
Tomorrow will be 2m 21s longer.
Waning Gibbous, 90% of the Moon is Illuminated
Today
Waning Gibbous
Apr 22
Last Quarter
Apr 29
New
May 6
First Quarter
May 14
Full

Today's Extremes

State Highs State Lows

Community

  • SUNRISE THROUGH THE TREES.
    SUNRISE THROUGH THE TREES.
  • Dog Wood Blossoms
    Dog Wood Blossoms
  • Morning Light
    Morning Light
  • New Day
    New Day
  • Lake Michigan Sunrise
    Lake Michigan Sunrise

WunderPhotos

Upload Photos

1,702,278 photos uploaded!

WunderBlogs® & News

Nearby

Snow Depth

Station Depth Elevation
No new snow has been reported.

Coastal Water Temperatures

Place Temperature
No Stations Reporting

Earthquake Activity

City Distance Mag. Time & Date
Medford, Oklahoma 141 miles 3.0 5:38 PM CDT
2014-04-12
Minimum magnitude displayed is 2.5.

Nearby Weather Stations

Station Location Temp. Windchill Dew Point Humidity Wind Precip. Elev Updated Type
Rural Ellis Co., Hays, KS 36.7 °F 33 °F 34 °F 90% South  at  4.2 mph - / hr 2119 ft 1:41 AM CDT Normal
Sarrada Farms 2.0 N, 2.3 E, Rozel, KS 36.3 °F 32 °F 34 °F 90% South  at  4.9 mph 0.00 in / hr 2100 ft 1:54 AM CDT Rapid Fire
Hays Kansas Weather, Hays, KS 38.8 °F 39 °F 32 °F 78% ESE  at  1.2 mph 0.00 in / hr 2070 ft 1:54 AM CDT Rapid Fire

Show More Stations Show Fewer Stations

What do you think?

We're not finished. Please let us know what you like, what you don't like, and what you are still missing.